Airfield :
LOGIN :

Register | Disclaimer

   EN    FR    IT 

 










Legend :    VFR   Marginal VFR   IFR   Intensive IFR   Very Intensive IFR
Visi :
Ceiling :
>= 8 km
>= 3000ft
5 to 8 km
1000 to 3000 ft
1500m to 5 km
500 to 1000 ft
800 to 1500m
200 to 500 ft
< 800m
< 200 ft
Symbols :   Thunderstorms  Fog  Heavy snow  Heavy precipitations  Wind > 20 kt
SIGMETs :     Misc.  Thunderstorms  Icing  Turbulence  Mountain Waves  Volcanic Ashes






- Airport Elevation : 46 ft
- IATA code : PAF


LPMT - Montijo Air Base

CURRENT METAR :
  • 200400Z 12011KT 9999 -RA FEW010 12/12 Q1008

EXPIRED METARs :
  • 200300Z 12011KT 9999 -RA SCT010 BKN018 12/12 Q1009
  • 200200Z 13008KT 9999 -RA BKN010 12/12 Q1010

TAF TAF LPMT
Valid from the 20 at 00:00 until the 21 at 00:00 UTC


192306Z 2000/2024 18010KT 7000 -RA SCT012 BKN020
TEMPO 2000/2004 18012G22KT 3000 RADZ BR SCT004 BKN008 FEW014CB
BECMG 2004/2006 31008KT 9999 NSW SCT025
BECMG 2009/2011 25012KT
TEMPO 2011/2018 25012G22KT 4000 SHRA BKN018 FEW020CB
BECMG 2018/2020 21005KT



MET'MAP, your aeronautical weather chart ! - Copyright ORBIFLY December 2007 - Disclaimer

ORBIFLY MET'MAP TEAM :

Programming & Development : Alexandra Zaïnal
Concept & Development : Baudouin d'Aumeries
Co-Development & Prog : Marc-Olivier Méhu
Technical & hardware support : Manuel Goepfert

Contact : metmap@orbifly.com




SOURCES & CREDITS :

   NOAA